Time;durP1;ratioP1;P1;durP2;ratioP2;P2;SDS_P1;SDS_P2;PMS_P1;PMS_P2;Temp;Humidity;BMP_temperature;BMP_pressure;BME280_temperature;BME280_humidity;BME280_pressure;Samples;Min_cycle;Max_cycle;Signal;HPM_P1;HPM_P2
2021/11/10 00:01:21;;;;;;;8.93;5.77;;;3.40;99.90;;;;;;5053354;28;20209;-56
2021/11/10 00:03:47;;;;;;;12.83;6.93;;;3.40;99.90;;;;;;5053409;28;20202;-57
2021/11/10 00:06:14;;;;;;;11.23;7.70;;;3.50;99.90;;;;;;5053365;28;20224;-55
2021/11/10 00:08:41;;;;;;;8.07;6.07;;;3.50;99.90;;;;;;5053327;28;20213;-56
2021/11/10 00:11:08;;;;;;;8.37;5.87;;;3.60;99.90;;;;;;5051176;28;20267;-61
2021/11/10 00:13:36;;;;;;;11.90;6.37;;;3.60;99.90;;;;;;5052318;28;20205;-60
2021/11/10 00:16:03;;;;;;;9.60;6.00;;;3.60;99.90;;;;;;5051319;28;20217;-60
2021/11/10 00:18:30;;;;;;;10.30;6.30;;;3.60;99.90;;;;;;5052882;28;20229;-58
2021/11/10 00:20:58;;;;;;;9.80;6.30;;;3.50;99.90;;;;;;5052883;28;20206;-58
2021/11/10 00:23:24;;;;;;;10.20;6.20;;;3.50;99.90;;;;;;5052751;28;20232;-59
2021/11/10 00:25:51;;;;;;;8.13;6.20;;;3.50;99.90;;;;;;5052967;28;20653;-58
2021/11/10 00:28:18;;;;;;;9.57;6.47;;;3.50;99.90;;;;;;5052888;28;20241;-58
2021/11/10 00:30:46;;;;;;;9.00;6.30;;;3.60;99.90;;;;;;5053227;28;20212;-59
2021/11/10 00:33:13;;;;;;;10.20;6.00;;;3.70;99.90;;;;;;5053210;28;20235;-59
2021/11/10 00:35:40;;;;;;;9.17;6.10;;;3.70;99.90;;;;;;5053156;28;20263;-58
2021/11/10 00:38:07;;;;;;;15.03;6.43;;;3.80;99.90;;;;;;5052719;28;20697;-59
2021/11/10 00:40:34;;;;;;;9.37;5.70;;;3.80;99.90;;;;;;5052458;28;20691;-59
2021/11/10 00:43:00;;;;;;;7.97;6.47;;;3.80;99.90;;;;;;5052628;28;20216;-59
2021/11/10 00:45:27;;;;;;;9.73;6.80;;;3.90;99.90;;;;;;5052178;28;20206;-59
2021/11/10 00:47:55;;;;;;;10.20;6.30;;;3.90;99.90;;;;;;5052173;28;20401;-59
2021/11/10 00:50:22;;;;;;;11.33;7.03;;;3.90;99.90;;;;;;5052609;28;20213;-59
2021/11/10 00:52:49;;;;;;;10.47;6.97;;;3.90;99.90;;;;;;5052284;28;20216;-59
2021/11/10 00:55:15;;;;;;;9.20;6.23;;;4.00;99.90;;;;;;5052054;28;20209;-59
2021/11/10 00:57:42;;;;;;;9.07;6.33;;;3.90;99.90;;;;;;5051919;28;20240;-59
2021/11/10 01:00:10;;;;;;;9.97;6.00;;;3.90;99.90;;;;;;5052046;28;20229;-59
2021/11/10 01:02:37;;;;;;;9.47;6.53;;;3.90;99.90;;;;;;5051751;28;20201;-59
2021/11/10 01:05:06;;;;;;;11.27;6.70;;;4.00;99.90;;;;;;5051841;28;20205;-59
2021/11/10 01:07:33;;;;;;;8.90;6.83;;;4.00;99.90;;;;;;5051986;28;20626;-59
2021/11/10 01:10:01;;;;;;;11.83;6.67;;;4.00;99.90;;;;;;5051966;28;20339;-58
2021/11/10 01:12:28;;;;;;;10.50;6.73;;;4.00;99.90;;;;;;5051815;28;20212;-59
2021/11/10 01:14:55;;;;;;;13.00;7.83;;;4.00;99.90;;;;;;5051565;28;20220;-60
2021/11/10 01:17:22;;;;;;;11.03;6.57;;;4.00;99.90;;;;;;5051330;28;20689;-58
2021/11/10 01:19:49;;;;;;;9.60;6.50;;;4.00;99.90;;;;;;5051661;28;20255;-59
2021/11/10 01:22:17;;;;;;;9.20;5.60;;;4.00;99.90;;;;;;5051673;28;20397;-59
2021/11/10 01:24:45;;;;;;;9.60;5.77;;;4.00;99.90;;;;;;5050911;28;20205;-59
2021/11/10 01:27:12;;;;;;;6.07;4.50;;;4.00;99.90;;;;;;5051578;28;20229;-59
2021/11/10 01:29:38;;;;;;;6.30;4.60;;;4.00;99.90;;;;;;5051265;28;20213;-58
2021/11/10 01:32:06;;;;;;;8.53;4.60;;;4.00;99.90;;;;;;5051489;28;20212;-60
2021/11/10 01:34:33;;;;;;;9.13;4.80;;;4.00;99.90;;;;;;5051731;28;20627;-58
2021/11/10 01:37:00;;;;;;;6.47;4.47;;;4.00;99.90;;;;;;5073701;23;20730;-58
2021/11/10 01:39:28;;;;;;;9.67;4.40;;;4.00;99.90;;;;;;5051484;28;20213;-58
2021/11/10 01:42:01;;;;;;;6.93;4.63;;;4.00;99.90;;;;;;5051422;28;20283;-58
2021/11/10 01:44:29;;;;;;;7.53;4.70;;;4.00;99.90;;;;;;5051160;28;20259;-58
2021/11/10 01:46:58;;;;;;;8.27;4.70;;;3.90;99.90;;;;;;5055559;28;20228;-58
2021/11/10 01:49:25;;;;;;;5.47;4.50;;;3.90;99.90;;;;;;5071179;28;20209;-59
2021/11/10 01:51:55;;;;;;;9.30;4.83;;;3.90;99.90;;;;;;5071268;28;20216;-59
2021/11/10 01:54:24;;;;;;;8.23;5.53;;;3.90;99.90;;;;;;5071041;28;20213;-58
2021/11/10 01:56:53;;;;;;;11.83;6.60;;;3.90;99.90;;;;;;5070867;28;20236;-58
2021/11/10 01:59:29;;;;;;;10.37;6.40;;;3.90;99.90;;;;;;5070911;28;20216;-58
2021/11/10 02:01:58;;;;;;;10.60;6.60;;;3.80;99.90;;;;;;5070958;28;20699;-58
2021/11/10 02:04:26;;;;;;;9.20;5.47;;;3.80;99.90;;;;;;5070960;28;20213;-59
2021/11/10 02:06:53;;;;;;;9.07;6.10;;;3.80;99.90;;;;;;5070918;28;20221;-59
2021/11/10 02:09:22;;;;;;;11.30;6.37;;;3.70;99.90;;;;;;5070791;28;20266;-59
2021/11/10 02:11:49;;;;;;;8.80;6.07;;;3.70;99.90;;;;;;5071031;28;20204;-59
2021/11/10 02:14:18;;;;;;;9.07;6.23;;;3.60;99.90;;;;;;5070621;28;20673;-59
2021/11/10 02:16:45;;;;;;;9.20;5.60;;;3.50;99.90;;;;;;5070726;28;20212;-58
2021/11/10 02:19:14;;;;;;;8.70;5.53;;;3.40;99.90;;;;;;5070862;28;20239;-59
2021/11/10 02:21:43;;;;;;;9.30;5.90;;;3.30;99.90;;;;;;5070735;28;20672;-59
2021/11/10 02:24:10;;;;;;;6.97;5.33;;;3.30;99.90;;;;;;5070807;28;20601;-59
2021/11/10 02:26:37;;;;;;;9.57;5.70;;;3.20;99.90;;;;;;5070675;28;20714;-59
2021/11/10 02:29:05;;;;;;;10.80;5.57;;;3.20;99.90;;;;;;5070760;28;20205;-59
2021/11/10 02:31:34;;;;;;;6.93;5.20;;;3.10;99.90;;;;;;5070756;28;20209;-58
2021/11/10 02:34:01;;;;;;;7.60;5.47;;;2.90;99.90;;;;;;5070503;28;20684;-58
2021/11/10 02:36:28;;;;;;;9.30;5.33;;;2.80;99.90;;;;;;5071372;28;20209;-59
2021/11/10 02:38:56;;;;;;;9.20;5.43;;;2.90;99.90;;;;;;5074827;28;20225;-58
2021/11/10 02:41:23;;;;;;;10.23;5.50;;;2.90;99.90;;;;;;5074884;28;20258;-58
2021/11/10 02:43:50;;;;;;;7.93;5.47;;;2.90;99.90;;;;;;5074828;28;20204;-58
2021/11/10 02:46:16;;;;;;;8.77;5.80;;;2.90;99.90;;;;;;5074774;28;20228;-58
2021/11/10 02:48:43;;;;;;;9.57;6.10;;;3.00;99.90;;;;;;5074381;28;20220;-59
2021/11/10 02:51:10;;;;;;;6.43;5.23;;;3.00;99.90;;;;;;5074716;28;20217;-58
2021/11/10 02:53:36;;;;;;;8.00;5.77;;;3.00;99.90;;;;;;5074601;28;20208;-58
2021/11/10 02:56:05;;;;;;;9.77;5.80;;;3.00;99.90;;;;;;5074455;28;20212;-58
2021/11/10 02:58:32;;;;;;;5.87;5.17;;;3.10;99.90;;;;;;5074137;28;20225;-59
2021/11/10 03:01:00;;;;;;;9.27;6.00;;;3.10;99.90;;;;;;5074156;28;20236;-58
2021/11/10 03:03:26;;;;;;;6.57;5.17;;;3.20;99.90;;;;;;5073997;28;20209;-58
2021/11/10 03:05:53;;;;;;;6.63;5.57;;;3.20;99.90;;;;;;5074122;28;20496;-59
2021/11/10 03:08:21;;;;;;;9.80;5.60;;;3.20;99.90;;;;;;5074158;28;20651;-58
2021/11/10 03:10:48;;;;;;;9.33;6.03;;;3.20;99.90;;;;;;5074229;28;20209;-58
2021/11/10 03:13:16;;;;;;;10.57;5.67;;;3.10;99.90;;;;;;5074181;28;20617;-58
2021/11/10 03:15:46;;;;;;;8.57;5.43;;;3.00;99.90;;;;;;5073854;28;20218;-58
2021/11/10 03:18:13;;;;;;;9.60;5.83;;;2.90;99.90;;;;;;5073501;28;20220;-58
2021/11/10 03:20:40;;;;;;;9.50;6.33;;;3.00;99.90;;;;;;5074129;28;20204;-59
2021/11/10 03:23:08;;;;;;;13.87;6.93;;;3.00;99.90;;;;;;5073854;28;20204;-58
2021/11/10 03:25:35;;;;;;;10.60;6.50;;;3.00;99.90;;;;;;5073660;28;20216;-58
2021/11/10 03:28:02;;;;;;;8.20;6.43;;;2.90;99.90;;;;;;5073481;28;20266;-59
2021/11/10 03:30:30;;;;;;;11.07;6.63;;;3.00;99.90;;;;;;5073480;28;20216;-58
2021/11/10 03:32:57;;;;;;;7.97;6.03;;;3.00;99.90;;;;;;5073827;28;20211;-59
2021/11/10 03:35:24;;;;;;;11.87;7.03;;;3.10;99.90;;;;;;5073820;28;20251;-59
2021/11/10 03:37:51;;;;;;;12.70;8.37;;;3.10;99.90;;;;;;5073365;28;20236;-59
2021/11/10 03:40:19;;;;;;;13.40;8.57;;;3.00;99.90;;;;;;5073612;28;20205;-59
2021/11/10 03:42:45;;;;;;;13.70;8.00;;;2.90;99.90;;;;;;5073552;28;20209;-59
2021/11/10 03:45:12;;;;;;;10.00;7.10;;;2.90;99.90;;;;;;5073139;28;20205;-59
2021/11/10 03:47:40;;;;;;;12.20;7.27;;;2.90;99.90;;;;;;5073129;28;20221;-59
2021/11/10 03:50:08;;;;;;;10.90;6.60;;;2.80;99.90;;;;;;5073778;28;20216;-59
2021/11/10 03:52:35;;;;;;;11.57;6.70;;;2.80;99.90;;;;;;5073627;28;20216;-59
2021/11/10 03:55:02;;;;;;;10.57;6.93;;;2.70;99.90;;;;;;5073207;28;20213;-59
2021/11/10 03:57:29;;;;;;;14.63;9.03;;;2.80;99.90;;;;;;5073019;28;20231;-59
2021/11/10 03:59:56;;;;;;;9.13;6.77;;;2.80;99.90;;;;;;5073021;28;20270;-59
2021/11/10 04:02:22;;;;;;;9.90;6.93;;;2.80;99.90;;;;;;5073235;28;20208;-59
2021/11/10 04:04:50;;;;;;;12.67;7.30;;;2.90;99.90;;;;;;5073075;28;20212;-60
2021/11/10 04:07:17;;;;;;;11.70;7.63;;;3.00;99.90;;;;;;5073368;28;20233;-59
2021/11/10 04:09:44;;;;;;;11.03;7.10;;;3.00;99.90;;;;;;5072892;28;20668;-60
2021/11/10 04:12:10;;;;;;;11.90;7.43;;;3.10;99.90;;;;;;5073514;28;20447;-59
2021/11/10 04:14:37;;;;;;;12.80;7.77;;;3.20;99.90;;;;;;5072991;28;20216;-59
2021/11/10 04:17:06;;;;;;;11.63;7.40;;;3.30;99.90;;;;;;5072988;28;20248;-59
2021/11/10 04:19:33;;;;;;;14.37;7.90;;;3.40;99.90;;;;;;5073006;28;20235;-59
2021/11/10 04:22:02;;;;;;;10.83;8.00;;;3.40;99.90;;;;;;5072916;28;20228;-59
2021/11/10 04:24:29;;;;;;;10.60;7.97;;;3.40;99.90;;;;;;5072600;28;20205;-59
2021/11/10 04:26:56;;;;;;;10.77;7.53;;;3.40;99.90;;;;;;5072472;28;20256;-59
2021/11/10 04:29:22;;;;;;;13.87;8.20;;;3.40;99.90;;;;;;5072395;28;20661;-59
2021/11/10 04:31:49;;;;;;;14.27;8.10;;;3.40;99.90;;;;;;5072669;28;20212;-56
2021/11/10 04:34:16;;;;;;;11.83;8.03;;;3.40;99.90;;;;;;5072407;28;20208;-59
2021/11/10 04:36:43;;;;;;;14.27;8.33;;;3.40;99.90;;;;;;5072311;28;20197;-57
2021/11/10 04:39:11;;;;;;;12.53;8.10;;;3.40;99.90;;;;;;5072340;28;20247;-57
2021/11/10 04:41:37;;;;;;;11.87;7.80;;;3.40;99.90;;;;;;5072338;28;20212;-57
2021/11/10 04:44:05;;;;;;;10.87;7.57;;;3.40;99.90;;;;;;5072388;28;20201;-57
2021/11/10 04:46:33;;;;;;;10.20;7.50;;;3.40;99.90;;;;;;5072467;28;20212;-57
2021/11/10 04:49:00;;;;;;;10.63;8.03;;;3.40;99.90;;;;;;5072214;28;20722;-58
2021/11/10 04:51:27;;;;;;;11.90;7.97;;;3.40;99.90;;;;;;5072323;28;20208;-57
2021/11/10 04:53:56;;;;;;;12.03;7.60;;;3.40;99.90;;;;;;5072027;28;20205;-58
2021/11/10 04:56:24;;;;;;;13.40;7.90;;;3.40;99.90;;;;;;5072303;28;20201;-58
2021/11/10 04:58:51;;;;;;;11.73;7.83;;;3.50;99.90;;;;;;5071268;28;20672;-58
2021/11/10 05:01:25;;;;;;;12.17;8.20;;;3.50;99.90;;;;;;5071916;28;20213;-57
2021/11/10 05:03:52;;;;;;;10.73;7.83;;;3.50;99.90;;;;;;5071846;28;20204;-58
2021/11/10 05:06:19;;;;;;;12.00;7.77;;;3.40;99.90;;;;;;5071729;28;20254;-59
2021/11/10 05:08:46;;;;;;;10.23;7.43;;;3.40;99.90;;;;;;5071764;28;20221;-58
2021/11/10 05:11:13;;;;;;;11.27;7.77;;;3.40;99.90;;;;;;5072037;28;20207;-59
2021/11/10 05:13:41;;;;;;;12.33;8.27;;;3.40;99.90;;;;;;5071611;28;20692;-58
2021/11/10 05:16:08;;;;;;;11.87;8.03;;;3.30;99.90;;;;;;5071843;28;20204;-58
2021/11/10 05:18:35;;;;;;;10.83;7.27;;;3.30;99.90;;;;;;5071435;28;20220;-58
2021/11/10 05:21:01;;;;;;;11.07;7.77;;;3.30;99.90;;;;;;5071543;28;20211;-58
2021/11/10 05:23:28;;;;;;;11.70;7.87;;;3.30;99.90;;;;;;5071860;28;20445;-58
2021/11/10 05:25:55;;;;;;;10.33;8.03;;;3.20;99.90;;;;;;5071689;28;20213;-58
2021/11/10 05:28:21;;;;;;;10.33;8.03;;;3.10;99.90;;;;;;5071841;28;20712;-58
2021/11/10 05:30:49;;;;;;;13.13;8.33;;;3.10;99.90;;;;;;5072127;28;20209;-58
2021/11/10 05:33:16;;;;;;;15.70;9.27;;;3.00;99.90;;;;;;5072063;28;20201;-58
2021/11/10 05:35:43;;;;;;;12.87;8.07;;;2.90;99.90;;;;;;5071685;28;20583;-58
2021/11/10 05:38:10;;;;;;;12.57;8.23;;;2.80;99.90;;;;;;5071500;28;20699;-58
2021/11/10 05:40:37;;;;;;;13.53;8.93;;;2.70;99.90;;;;;;5072253;28;20239;-58
2021/11/10 05:43:04;;;;;;;12.13;8.63;;;2.60;99.90;;;;;;5072230;28;20208;-58
2021/11/10 05:45:32;;;;;;;12.37;8.20;;;2.60;99.90;;;;;;5071841;28;20228;-58
2021/11/10 05:48:00;;;;;;;11.77;8.67;;;2.60;99.90;;;;;;5071491;28;20236;-58
2021/11/10 05:50:27;;;;;;;12.60;8.90;;;2.50;99.90;;;;;;5071376;28;20262;-58
2021/11/10 05:52:54;;;;;;;19.30;9.23;;;2.50;99.90;;;;;;5071283;28;20270;-58
2021/11/10 05:55:23;;;;;;;13.57;9.47;;;2.60;99.90;;;;;;5071195;28;20205;-58
2021/11/10 05:57:51;;;;;;;12.93;8.90;;;2.60;99.90;;;;;;5070956;28;20316;-58
2021/11/10 06:00:18;;;;;;;13.40;9.93;;;2.60;99.90;;;;;;5071042;28;20217;-58
2021/11/10 06:02:45;;;;;;;16.10;10.00;;;2.70;99.90;;;;;;5070877;28;20620;-58
2021/11/10 06:05:16;;;;;;;15.77;11.30;;;2.70;99.90;;;;;;5070812;28;20232;-58
2021/11/10 06:07:45;;;;;;;14.70;10.83;;;2.70;99.90;;;;;;5070896;28;20231;-58
2021/11/10 06:10:12;;;;;;;14.13;10.27;;;2.70;99.90;;;;;;5070693;28;20201;-59
2021/11/10 06:12:39;;;;;;;16.27;10.40;;;2.70;99.90;;;;;;5070990;28;20729;-58
2021/11/10 06:15:07;;;;;;;14.80;11.67;;;2.90;99.90;;;;;;5070521;28;20209;-58
2021/11/10 06:17:34;;;;;;;14.77;12.03;;;2.90;99.90;;;;;;5070773;28;20233;-58
2021/11/10 06:20:02;;;;;;;15.93;10.67;;;3.00;99.90;;;;;;5070811;28;20225;-60
2021/11/10 06:22:31;;;;;;;15.73;9.93;;;3.00;99.90;;;;;;5070818;28;20314;-58
2021/11/10 06:24:58;;;;;;;15.00;9.70;;;3.00;99.90;;;;;;5070563;28;20208;-58
2021/11/10 06:27:25;;;;;;;16.50;10.03;;;3.00;99.90;;;;;;5070527;28;20229;-58
2021/11/10 06:29:52;;;;;;;13.20;8.93;;;3.00;99.90;;;;;;5070255;28;20201;-58
2021/11/10 06:32:19;;;;;;;14.67;10.10;;;3.00;99.90;;;;;;5070701;28;20581;-58
2021/11/10 06:34:46;;;;;;;18.40;10.80;;;3.00;99.90;;;;;;5070432;28;20204;-58
2021/11/10 06:37:12;;;;;;;15.07;10.00;;;2.90;99.90;;;;;;5070394;28;20247;-58
2021/11/10 06:39:40;;;;;;;14.17;10.43;;;2.90;99.90;;;;;;5070483;28;20278;-58
2021/11/10 06:42:07;;;;;;;13.50;10.40;;;2.90;99.90;;;;;;5070222;28;20219;-58
2021/11/10 06:44:35;;;;;;;17.90;10.97;;;3.00;99.90;;;;;;5070107;28;20208;-58
2021/11/10 06:47:02;;;;;;;17.13;10.47;;;3.10;99.90;;;;;;5070359;28;20869;-58
2021/11/10 06:49:29;;;;;;;18.93;11.77;;;3.10;99.90;;;;;;5070311;28;20200;-58
2021/11/10 06:51:57;;;;;;;17.60;11.67;;;3.20;99.90;;;;;;5070506;28;20212;-59
2021/11/10 06:54:24;;;;;;;15.13;10.50;;;3.20;99.90;;;;;;5070169;28;20206;-58
2021/11/10 06:56:53;;;;;;;20.17;11.77;;;3.30;99.90;;;;;;5070134;28;20766;-58
2021/11/10 06:59:20;;;;;;;15.93;9.83;;;3.40;99.90;;;;;;5070053;28;20229;-59
2021/11/10 07:01:48;;;;;;;13.60;10.10;;;3.40;99.90;;;;;;5070390;28;20262;-58
2021/11/10 07:04:15;;;;;;;29.87;17.37;;;3.40;99.90;;;;;;5070572;28;20212;-58
2021/11/10 07:06:41;;;;;;;27.97;13.73;;;3.50;99.90;;;;;;5070187;28;20219;-58
2021/11/10 07:09:08;;;;;;;12.67;9.87;;;3.60;99.90;;;;;;5070324;28;20200;-58
2021/11/10 07:11:35;;;;;;;15.00;10.50;;;3.70;99.90;;;;;;5070820;28;20205;-59
2021/11/10 07:14:04;;;;;;;17.03;10.97;;;3.80;99.90;;;;;;5071065;28;20205;-66
2021/11/10 07:16:30;;;;;;;22.90;13.80;;;3.80;99.90;;;;;;5067349;28;20205;-58
2021/11/10 07:18:58;;;;;;;17.47;10.97;;;3.90;99.90;;;;;;5070390;28;20225;-61
2021/11/10 07:21:25;;;;;;;17.53;10.60;;;4.00;99.90;;;;;;5070303;28;20208;-61
2021/11/10 07:23:52;;;;;;;17.60;10.07;;;4.10;99.90;;;;;;5072942;28;20204;-61
2021/11/10 07:26:19;;;;;;;15.70;10.17;;;4.10;99.90;;;;;;5074140;28;20209;-61
2021/11/10 07:28:46;;;;;;;18.13;12.00;;;4.10;99.90;;;;;;5073917;28;20303;-61
2021/11/10 07:31:14;;;;;;;21.50;13.80;;;4.10;99.90;;;;;;5073899;28;20282;-61
2021/11/10 07:33:41;;;;;;;26.63;16.23;;;4.10;99.90;;;;;;5073907;28;20208;-62
2021/11/10 07:36:07;;;;;;;13.97;10.30;;;4.30;99.90;;;;;;5071237;28;20212;-62
2021/11/10 07:38:39;;;;;;;16.77;10.27;;;4.40;99.90;;;;;;5052689;28;20291;-61
2021/11/10 07:41:07;;;;;;;18.63;11.67;;;4.40;99.90;;;;;;5053559;28;20206;-62
2021/11/10 07:43:34;;;;;;;14.43;10.57;;;4.50;99.90;;;;;;5053334;28;20206;-62
2021/11/10 07:46:06;;;;;;;18.13;13.63;;;4.70;99.90;;;;;;5053558;28;20242;-62
2021/11/10 07:48:34;;;;;;;17.03;11.40;;;4.90;99.90;;;;;;5053445;28;20225;-62
2021/11/10 07:51:01;;;;;;;15.47;10.80;;;5.10;99.90;;;;;;5053089;28;20208;-62
2021/11/10 07:53:27;;;;;;;14.60;10.07;;;5.20;99.90;;;;;;5052659;28;20201;-63
2021/11/10 07:55:54;;;;;;;17.50;11.90;;;5.30;99.90;;;;;;5053463;28;20217;-65
2021/11/10 07:58:21;;;;;;;17.90;11.97;;;5.40;99.90;;;;;;5053006;28;20226;-63
2021/11/10 08:00:48;;;;;;;13.70;10.73;;;5.60;99.90;;;;;;5053093;28;20205;-61
2021/11/10 08:03:14;;;;;;;16.57;9.50;;;5.60;99.90;;;;;;5053421;28;20214;-62
2021/11/10 08:05:42;;;;;;;13.27;11.37;;;5.80;99.90;;;;;;5052778;28;20212;-62
2021/11/10 08:08:09;;;;;;;12.87;10.00;;;5.90;99.90;;;;;;5053258;28;20232;-63
2021/11/10 08:10:36;;;;;;;14.23;10.00;;;6.00;99.90;;;;;;5053000;28;20209;-62
2021/11/10 08:13:03;;;;;;;15.03;9.90;;;6.10;99.90;;;;;;5053189;28;20212;-65
2021/11/10 08:15:30;;;;;;;14.67;10.70;;;6.10;99.90;;;;;;5053433;28;20205;-63
2021/11/10 08:17:56;;;;;;;13.70;10.17;;;6.20;99.90;;;;;;5052463;28;20229;-62
2021/11/10 08:20:23;;;;;;;15.93;10.50;;;6.30;99.90;;;;;;5052873;28;20226;-64
2021/11/10 08:22:51;;;;;;;16.07;10.77;;;6.40;99.90;;;;;;5052707;28;20224;-63
2021/11/10 08:25:19;;;;;;;15.80;10.80;;;6.50;99.90;;;;;;5053420;28;20213;-63
2021/11/10 08:27:46;;;;;;;14.87;11.03;;;6.60;99.90;;;;;;5052975;28;20240;-66
2021/11/10 08:30:16;;;;;;;15.50;10.73;;;6.70;99.90;;;;;;5053240;28;20201;-62
2021/11/10 08:32:44;;;;;;;15.00;12.00;;;6.70;99.90;;;;;;5053043;28;20658;-60
2021/11/10 08:35:12;;;;;;;15.10;10.80;;;6.80;99.90;;;;;;5052374;28;20205;-58
2021/11/10 08:37:39;;;;;;;13.90;11.37;;;6.90;99.90;;;;;;5050539;28;20233;-59
2021/11/10 08:40:10;;;;;;;15.83;11.57;;;6.90;99.90;;;;;;5052413;28;20229;-59
2021/11/10 08:42:37;;;;;;;15.73;10.97;;;7.00;99.90;;;;;;5053319;28;20860;-59
2021/11/10 08:45:06;;;;;;;13.57;11.30;;;7.10;99.90;;;;;;5072596;28;20619;-63
2021/11/10 08:47:34;;;;;;;15.83;11.73;;;7.10;99.90;;;;;;5073216;28;20240;-62
2021/11/10 08:50:01;;;;;;;16.60;13.03;;;7.20;99.90;;;;;;5057668;28;20208;-62
2021/11/10 08:52:28;;;;;;;17.10;11.73;;;7.20;99.90;;;;;;5052898;28;20217;-61
2021/11/10 08:54:55;;;;;;;20.87;11.53;;;7.40;99.90;;;;;;5052121;28;20312;-61
2021/11/10 08:57:23;;;;;;;15.27;10.93;;;7.60;99.90;;;;;;5052660;28;20605;-62
2021/11/10 08:59:50;;;;;;;16.80;11.47;;;7.70;99.90;;;;;;5052278;28;20240;-61
2021/11/10 09:02:17;;;;;;;15.10;12.67;;;7.80;99.90;;;;;;5052114;28;20701;-64
2021/11/10 09:04:43;;;;;;;13.47;10.70;;;7.90;99.90;;;;;;5052815;28;20213;-64
2021/11/10 09:07:10;;;;;;;13.73;10.47;;;8.00;99.90;;;;;;5053105;28;20233;-60
2021/11/10 09:09:37;;;;;;;19.87;12.50;;;8.10;99.90;;;;;;5052586;28;20252;-61
2021/11/10 09:12:05;;;;;;;17.90;11.37;;;8.20;99.90;;;;;;5051804;28;20213;-61
2021/11/10 09:14:33;;;;;;;17.47;10.50;;;8.10;99.90;;;;;;5051958;28;20680;-62
2021/11/10 09:16:59;;;;;;;16.43;11.73;;;8.20;99.90;;;;;;5051529;28;20225;-61
2021/11/10 09:19:26;;;;;;;13.80;10.87;;;8.20;99.90;;;;;;5051792;28;20218;-61
2021/11/10 09:21:53;;;;;;;18.40;12.20;;;7.90;99.90;;;;;;5051609;28;20696;-61
2021/11/10 09:24:20;;;;;;;19.97;11.07;;;7.90;99.90;;;;;;5051653;28;20236;-61
2021/11/10 09:26:49;;;;;;;17.73;10.80;;;7.90;99.90;;;;;;5051518;28;20230;-57
2021/11/10 09:29:19;;;;;;;16.63;11.60;;;8.10;99.90;;;;;;5051519;28;20347;-58
2021/11/10 09:31:48;;;;;;;15.90;11.13;;;8.20;99.90;;;;;;5051775;28;20535;-58
2021/11/10 09:34:15;;;;;;;14.47;9.90;;;8.30;99.90;;;;;;5051638;28;20205;-58
2021/11/10 09:36:47;;;;;;;14.67;10.57;;;8.30;99.90;;;;;;5051257;28;20228;-58
2021/11/10 09:39:15;;;;;;;12.87;10.20;;;8.00;99.90;;;;;;5051157;28;20256;-58
2021/11/10 09:41:42;;;;;;;14.57;10.20;;;8.10;99.90;;;;;;5051932;28;20214;-57
2021/11/10 09:44:10;;;;;;;11.80;9.33;;;8.30;99.90;;;;;;5051454;28;20209;-57
2021/11/10 09:46:38;;;;;;;13.70;9.73;;;8.60;99.90;;;;;;5050769;28;20208;-57
2021/11/10 09:49:08;;;;;;;12.67;9.10;;;8.80;99.90;;;;;;5051399;28;20257;-57
2021/11/10 09:51:35;;;;;;;12.53;9.13;;;8.80;99.90;;;;;;5051280;28;20255;-57
2021/11/10 09:54:03;;;;;;;13.20;10.13;;;8.70;99.90;;;;;;5051396;28;20661;-57
2021/11/10 09:56:30;;;;;;;15.63;10.03;;;8.70;99.90;;;;;;5050763;28;20224;-57
2021/11/10 09:58:57;;;;;;;15.63;10.33;;;8.80;99.90;;;;;;5051020;28;20696;-57
2021/11/10 10:01:25;;;;;;;12.23;9.27;;;8.90;99.90;;;;;;5050915;28;20266;-57
2021/11/10 10:03:52;;;;;;;15.80;10.67;;;8.80;99.90;;;;;;5050990;28;20209;-57
2021/11/10 10:06:20;;;;;;;11.40;9.73;;;8.80;99.90;;;;;;5050728;28;20205;-57
2021/11/10 10:08:47;;;;;;;14.23;10.20;;;8.90;99.90;;;;;;5050930;28;20622;-57
2021/11/10 10:11:18;;;;;;;12.17;9.60;;;8.90;99.90;;;;;;5050843;28;20208;-57
2021/11/10 10:13:44;;;;;;;13.63;9.67;;;8.90;99.90;;;;;;5050682;28;20208;-57
2021/11/10 10:16:18;;;;;;;13.53;9.40;;;8.70;99.90;;;;;;5050784;28;20202;-57
2021/11/10 10:18:45;;;;;;;12.43;9.70;;;8.60;99.90;;;;;;5050747;28;20233;-57
2021/11/10 10:21:13;;;;;;;17.37;10.07;;;8.40;99.90;;;;;;5050437;28;20229;-57
2021/11/10 10:23:45;;;;;;;12.47;9.73;;;8.30;99.90;;;;;;5050798;28;20206;-57
2021/11/10 10:26:14;;;;;;;13.87;9.90;;;8.50;99.90;;;;;;5050604;28;20287;-57
2021/11/10 10:28:43;;;;;;;13.23;10.17;;;8.60;99.90;;;;;;5050542;28;20232;-56
2021/11/10 10:31:11;;;;;;;11.70;10.10;;;8.50;99.90;;;;;;5050462;28;20604;-57
2021/11/10 10:33:40;;;;;;;15.30;9.90;;;8.50;99.90;;;;;;5050844;28;20210;-58
2021/11/10 10:36:09;;;;;;;13.70;10.23;;;8.70;99.90;;;;;;5050508;28;20673;-58
2021/11/10 10:38:38;;;;;;;15.07;11.00;;;9.00;99.90;;;;;;5050254;28;20233;-58
2021/11/10 10:41:08;;;;;;;14.00;9.93;;;9.00;99.90;;;;;;5050554;28;20225;-58
2021/11/10 10:43:40;;;;;;;16.10;10.60;;;8.70;99.90;;;;;;5050394;28;20673;-58
2021/11/10 10:46:08;;;;;;;16.77;10.80;;;8.70;99.90;;;;;;5050370;28;20681;-58
2021/11/10 10:48:35;;;;;;;12.90;10.47;;;8.80;99.90;;;;;;5050435;28;20235;-58
2021/11/10 10:51:04;;;;;;;17.57;10.63;;;8.80;99.90;;;;;;5050366;28;20255;-58
2021/11/10 10:53:38;;;;;;;13.53;9.97;;;8.70;99.90;;;;;;5050023;28;20696;-58
2021/11/10 10:56:17;;;;;;;14.87;10.53;;;8.60;99.90;;;;;;5050421;28;20584;-58
2021/11/10 10:58:45;;;;;;;14.70;10.97;;;8.80;99.90;;;;;;5053652;28;20728;-58
2021/11/10 11:01:26;;;;;;;16.90;10.20;;;9.20;99.90;;;;;;5054459;28;20651;-58
2021/11/10 11:03:56;;;;;;;13.87;10.50;;;9.50;99.90;;;;;;5054192;28;20213;-58
2021/11/10 11:06:29;;;;;;;16.83;10.30;;;9.80;99.90;;;;;;5054227;28;20208;-58
2021/11/10 11:08:58;;;;;;;13.77;10.00;;;9.90;99.90;;;;;;5054246;28;20259;-59
2021/11/10 11:11:36;;;;;;;13.70;9.80;;;10.00;99.90;;;;;;5054100;28;20233;-58
2021/11/10 11:14:05;;;;;;;16.37;10.33;;;9.80;99.90;;;;;;5053878;28;20665;-58
2021/11/10 11:16:37;;;;;;;13.93;10.23;;;9.50;99.90;;;;;;5053874;28;20213;-58
2021/11/10 11:19:12;;;;;;;13.97;10.20;;;9.40;99.90;;;;;;5053728;28;20210;-58
2021/11/10 11:21:51;;;;;;;19.33;10.77;;;9.40;99.90;;;;;;5053751;28;20247;-58
2021/11/10 11:24:32;;;;;;;16.67;10.93;;;9.80;99.90;;;;;;5053624;28;20220;-58
2021/11/10 11:27:18;;;;;;;15.17;10.77;;;10.30;99.90;;;;;;5053806;28;20226;-58
2021/11/10 11:29:52;;;;;;;14.83;10.73;;;10.70;99.90;;;;;;5053579;28;20205;-58
2021/11/10 11:32:22;;;;;;;17.03;10.33;;;11.10;99.90;;;;;;5053603;28;20212;-58
2021/11/10 11:34:55;;;;;;;17.80;11.70;;;11.40;99.90;;;;;;5053721;28;20206;-58
2021/11/10 11:37:22;;;;;;;15.27;10.80;;;11.60;99.90;;;;;;5053327;28;20238;-58
2021/11/10 11:39:51;;;;;;;16.37;10.67;;;11.70;99.90;;;;;;5053284;28;20212;-58
2021/11/10 11:42:20;;;;;;;19.40;11.23;;;11.90;99.90;;;;;;5053356;28;20209;-58
2021/11/10 11:44:47;;;;;;;19.00;11.07;;;12.10;99.90;;;;;;5053322;28;20221;-59
2021/11/10 11:47:18;;;;;;;17.63;11.10;;;12.10;99.90;;;;;;5052850;28;20741;-59
2021/11/10 11:49:45;;;;;;;15.23;10.70;;;11.60;99.90;;;;;;5053370;28;20205;-59
2021/11/10 11:52:13;;;;;;;13.80;10.77;;;11.10;99.90;;;;;;5053352;28;20403;-58
2021/11/10 11:54:43;;;;;;;14.43;11.67;;;10.70;99.90;;;;;;5053240;28;20206;-59
2021/11/10 11:57:11;;;;;;;18.80;12.00;;;10.30;99.90;;;;;;5053158;28;20226;-58
2021/11/10 11:59:41;;;;;;;13.57;11.03;;;10.00;99.90;;;;;;5052548;28;20248;-58
2021/11/10 12:02:22;;;;;;;13.30;10.90;;;9.80;99.90;;;;;;5052581;28;20216;-58
2021/11/10 12:04:49;;;;;;;14.87;10.87;;;9.70;99.90;;;;;;5052532;28;20566;-58
2021/11/10 12:07:54;;;;;;;17.20;11.53;;;9.70;99.90;;;;;;5052622;28;20291;-59
2021/11/10 12:10:40;;;;;;;14.83;11.70;;;10.00;99.90;;;;;;5047291;28;20213;-57
2021/11/10 12:13:09;;;;;;;14.93;10.97;;;10.20;99.90;;;;;;5052570;28;20224;-58
2021/11/10 12:16:10;;;;;;;17.13;11.30;;;10.50;99.90;;;;;;5052498;28;20237;-59
2021/11/10 12:18:45;;;;;;;14.27;10.90;;;11.10;99.90;;;;;;5052261;28;20225;-59
2021/11/10 12:21:13;;;;;;;16.10;12.20;;;11.60;99.90;;;;;;5052550;28;20704;-59
2021/11/10 12:24:22;;;;;;;16.00;11.47;;;12.10;99.90;;;;;;5052505;28;20233;-59
2021/11/10 12:27:11;;;;;;;15.07;12.00;;;12.10;99.90;;;;;;5052933;28;20225;-59
2021/11/10 12:29:57;;;;;;;18.57;12.63;;;11.80;99.90;;;;;;5052402;28;20669;-59
2021/11/10 12:32:42;;;;;;;14.73;10.83;;;11.70;99.90;;;;;;5052818;28;20205;-58
2021/11/10 12:35:18;;;;;;;19.60;12.17;;;11.60;99.90;;;;;;5052630;28;20206;-58
2021/11/10 12:37:49;;;;;;;16.17;12.10;;;11.40;99.90;;;;;;5052432;28;20273;-59
2021/11/10 12:40:18;;;;;;;17.03;12.00;;;11.30;99.90;;;;;;5052420;28;20275;-58
2021/11/10 12:42:51;;;;;;;14.80;11.80;;;11.40;99.90;;;;;;5052159;28;20276;-58
2021/11/10 12:45:24;;;;;;;15.93;11.13;;;11.50;99.90;;;;;;5052156;28;20256;-60
2021/11/10 12:47:53;;;;;;;15.53;11.93;;;11.70;99.90;;;;;;5052186;28;20279;-59
2021/11/10 12:50:42;;;;;;;16.83;12.33;;;12.00;99.90;;;;;;5052309;28;20202;-59